Border Field (334) Station Data

Red Flag Warning: No
Fire Weather Zone: 243
SDGE Region: Metro
Lat/Lon: 32.542/-117.097

Observations

Time Wind Speed/Gust Temp(F) RH Fuel Moist Fuel Temp(F) Dewpt(F) Tmax(F) Tmin(F) Accum Precip 10-min Precip SL Press(mb)
3/29 8:00am 102 5 G 8 63° 41% - - 39° 65.3° 58.2° - - -
3/29 7:50am 137 5 G 7 64° 36% - - 36° 65.3° 58.2° - - -
3/29 7:40am 137 6 G 8 61° 39% - - 36° 63.3° 58.2° - - -
3/29 7:30am 130 7 G 10 60° 41% - - 36° 63.3° 58.2° - - -
3/29 7:20am 91 3 G 6 61° 40% - - 36° 63.3° 58.2° - - -
3/29 7:10am 102 5 G 7 60° 40% - - 36° 63.3° 58.2° - - -
3/29 7:00am 105 3 G 6 62° 37% - - 35° 63.3° 58.7° - - -
3/29 6:50am 147 6 G 8 62° 35% - - 34° 63.3° 58.7° - - -
3/29 6:40am 136 8 G 11 61° 37% - - 35° 63.3° 58.7° - - -
3/29 6:30am 128 9 G 11 62° 37% - - 35° 63.3° 58.7° - - -
3/29 6:20am 130 9 G 10 61° 39% - - 36° 63.3° 58.7° - - -
3/29 6:10am 129 9 G 11 61° 40% - - 36° 63.3° 58.7° - - -
3/29 6:00am 130 9 G 11 61° 41% - - 37° 63.3° 58.7° - - -
3/29 5:50am 128 8 G 10 60° 42% - - 37° 63.3° 58.7° - - -
3/29 5:40am 129 6 G 9 60° 43% - - 38° 63.3° 58.7° - - -
3/29 5:30am 138 6 G 8 61° 42% - - 38° 63.3° 58.7° - - -
3/29 5:20am 140 7 G 10 61° 44% - - 38° 63.3° 58.7° - - -
3/29 5:10am 137 7 G 11 60° 45% - - 39° 63.3° 58.7° - - -
3/29 5:00am 134 8 G 10 60° 48% - - 40° 63.3° 58.7° - - -
3/29 4:50am 135 8 G 11 60° 48% - - 40° 63.3° 58.7° - - -
3/29 4:40am 129 9 G 12 61° 47% - - 41° 63.3° 58.7° - - -
3/29 4:30am 137 5 G 8 62° 47% - - 41° 63.3° 58.7° - - -
3/29 4:20am 140 6 G 8 62° 46% - - 41° 63.3° 58.7° - - -
3/29 4:10am 141 5 G 7 63° 46% - - 42° 63.3° 58.7° - - -
3/29 4:00am 143 5 G 7 62° 48% - - 42° 63° 58.7° - - -
3/29 3:50am 134 7 G 9 62° 49% - - 42° 62.4° 58.7° - - -
3/29 3:40am 139 5 G 8 62° 49% - - 42° 62.4° 58.7° - - -
3/29 3:30am 142 6 G 8 61° 51% - - 43° 62.1° 58.7° - - -
3/29 3:20am 142 6 G 8 61° 53% - - 44° 61.8° 58.7° - - -
3/29 3:10am 131 7 G 9 61° 54% - - 44° 61.7° 58.7° - - -
3/29 3:00am 133 5 G 9 60° 56% - - 44° 61.7° 58.7° - - -
3/29 2:50am 138 2 G 4 59° 59% - - 45° 61.7° 58.7° - - -
3/29 2:40am 139 4 G 8 59° 58% - - 45° 61.7° 58.8° - - -
3/29 2:30am 125 7 G 9 59° 59% - - 45° 61.7° 58.9° - - -
3/29 2:20am 119 7 G 9 60° 57% - - 45° 61.7° 59.3° - - -
3/29 2:10am 129 7 G 9 60° 57% - - 45° 61.7° 59.6° - - -
3/29 2:00am 140 6 G 7 60° 56% - - 45° 61.7° 59.6° - - -
3/29 1:50am 141 4 G 6 60° 56% - - 44° 61.7° 59.6° - - -
3/29 1:40am 139 5 G 7 60° 55% - - 44° 61.7° 59.6° - - -
3/29 1:30am 140 6 G 9 60° 54% - - 44° 61.7° 59.6° - - -
3/29 1:20am 131 8 G 11 61° 54% - - 44° 61.7° 59.6° - - -
3/29 1:10am 125 8 G 10 61° 54% - - 44° 61.7° 59.6° - - -
3/29 1:00am 128 8 G 10 61° 53% - - 44° 61.7° 59.6° - - -
3/29 12:50am 132 8 G 10 61° 54% - - 44° 61.6° 59.6° - - -
3/29 12:40am 132 8 G 11 61° 54% - - 44° 61.2° 59.6° - - -
3/29 12:30am 130 8 G 12 60° 54% - - 44° 61.1° 59.6° - - -
3/29 12:20am 135 7 G 11 60° 55% - - 44° 60.7° 59.6° - - -
3/29 12:10am 133 7 G 11 60° 56% - - 45° 60.7° 59.6° - - -
3/29 12:00am 129 9 G 13 60° 58% - - 46° 65.7° 52.3° - - -
3/28 11:50pm 129 9 G 11 60° 61% - - 46° 65.7° 52.3° - - -
3/28 11:40pm 127 9 G 10 60° 63% - - 47° 65.7° 52.3° - - -
3/28 11:30pm 123 8 G 10 60° 62% - - 47° 65.7° 52.3° - - -
3/28 11:20pm 118 8 G 10 60° 62% - - 47° 65.7° 52.3° - - -
3/28 11:10pm 119 8 G 10 60° 62% - - 47° 65.7° 52.3° - - -
3/28 11:00pm 121 7 G 8 61° 61% - - 47° 65.7° 52.3° - - -
3/28 10:50pm 117 7 G 8 60° 65% - - 48° 65.7° 52.3° - - -
3/28 10:40pm 91 5 G 6 59° 74% - - 51° 65.7° 52.3° - - -
3/28 10:30pm 71 3 G 4 60° 70% - - 50° 65.7° 52.3° - - -
3/28 10:20pm 82 4 G 5 60° 65% - - 48° 65.7° 52.3° - - -
3/28 10:10pm 120 4 G 5 60° 64% - - 48° 65.7° 52.3° - - -
3/28 10:00pm 102 4 G 4 60° 65% - - 48° 65.7° 52.3° - - -
3/28 9:50pm 98 4 G 5 60° 63% - - 48° 65.7° 52.3° - - -
3/28 9:40pm 99 4 G 5 60° 62% - - 47° 65.7° 52.3° - - -
3/28 9:30pm 102 3 G 4 60° 65% - - 48° 65.7° 52.3° - - -
3/28 9:20pm 71 2 G 3 60° 66% - - 49° 65.7° 52.3° - - -
3/28 9:10pm 113 2 G 4 60° 69% - - 50° 65.7° 52.3° - - -
3/28 9:00pm 177 4 G 5 59° 73% - - 51° 65.7° 52.3° - - -
3/28 8:50pm 196 1 G 3 59° 74% - - 51° 65.7° 52.3° - - -
3/28 8:40pm 213 1 G 2 59° 76% - - 52° 65.7° 52.3° - - -
3/28 8:30pm 226 3 G 4 60° 77% - - 52° 65.7° 52.3° - - -
3/28 8:20pm 250 3 G 4 60° 76% - - 52° 65.7° 52.3° - - -
3/28 8:10pm 230 4 G 6 60° 73% - - 51° 65.7° 52.3° - - -
3/28 8:00pm 245 3 G 6 60° 67% - - 50° 65.7° 52.3° - - -
3/28 7:50pm 237 2 G 3 60° 66% - - 49° 65.7° 52.3° - - -
3/28 7:40pm 228 2 G 3 60° 67% - - 49° 65.7° 52.3° - - -
3/28 7:30pm 226 2 G 3 60° 71% - - 51° 65.7° 52.3° - - -
3/28 7:20pm 214 2 G 4 59° 75% - - 52° 65.7° 52.3° - - -
3/28 7:10pm 225 2 G 3 60° 77% - - 53° 65.7° 52.3° - - -
3/28 7:00pm 248 3 G 4 60° 76% - - 53° 65.7° 52.3° - - -
3/28 6:50pm 257 3 G 4 60° 76% - - 53° 65.7° 52.3° - - -
3/28 6:40pm 240 4 G 6 61° 78% - - 54° 65.7° 52.3° - - -
3/28 6:30pm 265 4 G 7 61° 77% - - 54° 65.7° 52.3° - - -
3/28 6:20pm 269 5 G 7 61° 76% - - 54° 65.7° 52.3° - - -
3/28 6:10pm 278 6 G 8 61° 76% - - 54° 65.7° 52.3° - - -
3/28 6:00pm 272 6 G 9 62° 78% - - 55° 65.7° 52.3° - - -
3/28 5:50pm 270 6 G 10 62° 77% - - 54° 65.7° 52.3° - - -
3/28 5:40pm 271 6 G 10 62° 74% - - 54° 65.7° 52.3° - - -
3/28 5:30pm 275 6 G 9 62° 75% - - 54° 65.7° 52.3° - - -
3/28 5:20pm 271 7 G 12 62° 75% - - 54° 65.7° 52.3° - - -
3/28 5:10pm 266 7 G 11 62° 75% - - 54° 65.7° 52.3° - - -
3/28 5:00pm 260 8 G 12 62° 74% - - 54° 65.7° 52.3° - - -
3/28 4:50pm 267 8 G 13 62° 74% - - 54° 65.7° 52.3° - - -
3/28 4:40pm 266 9 G 13 62° 74% - - 54° 65.7° 52.3° - - -
3/28 4:30pm 289 9 G 13 63° 69% - - 52° 65.7° 52.3° - - -
3/28 4:20pm 288 8 G 11 63° 69% - - 53° 65.7° 52.3° - - -
3/28 4:10pm 275 8 G 12 63° 68% - - 52° 65.7° 52.3° - - -
3/28 4:00pm 276 8 G 13 64° 67% - - 53° 65.7° 52.3° - - -
3/28 3:50pm 269 9 G 14 63° 68% - - 52° 65.7° 52.3° - - -
3/28 3:40pm 282 9 G 14 64° 64% - - 51° 65.7° 52.3° - - -
3/28 3:30pm 269 8 G 13 64° 59% - - 50° 65.7° 52.3° - - -
3/28 3:20pm 260 8 G 14 64° 63% - - 51° 65.7° 52.3° - - -
3/28 3:10pm 274 8 G 14 63° 66% - - 51° 64.9° 52.3° - - -
3/28 3:00pm 266 9 G 13 64° 65% - - 51° 64.9° 52.3° - - -
3/28 2:50pm 265 9 G 16 63° 68% - - 53° 64.9° 52.3° - - -
3/28 2:40pm 277 9 G 14 64° 60% - - 50° 64.9° 52.3° - - -
3/28 2:30pm 290 9 G 14 64° 58% - - 49° 64.6° 52.3° - - -
3/28 2:20pm 283 10 G 15 64° 63% - - 51° 64.6° 52.3° - - -
3/28 2:10pm 284 9 G 14 63° 64% - - 51° 64.6° 52.3° - - -
3/28 2:00pm 277 9 G 13 64° 68% - - 53° 64.6° 52.3° - - -
3/28 1:50pm 262 8 G 12 63° 72% - - 54° 63.7° 52.3° - - -
3/28 1:40pm 254 9 G 13 63° 72% - - 54° 63.7° 52.3° - - -
3/28 1:30pm 272 10 G 13 62° 71% - - 53° 63.7° 52.3° - - -
3/28 1:20pm 279 11 G 14 62° 70% - - 52° 63.7° 52.3° - - -
3/28 1:10pm 277 8 G 15 62° 70% - - 52° 63.7° 52.3° - - -
3/28 1:00pm 282 9 G 13 63° 69% - - 52° 63.7° 52.3° - - -
3/28 12:50pm 280 7 G 11 62° 71% - - 52° 63.6° 52.3° - - -
3/28 12:40pm 261 8 G 14 62° 71% - - 53° 63.6° 52.3° - - -
3/28 12:30pm 276 9 G 14 62° 70% - - 52° 63.6° 52.3° - - -
3/28 12:20pm 276 8 G 12 63° 70% - - 53° 63.6° 52.3° - - -
3/28 12:10pm 277 8 G 11 62° 71% - - 53° 63.6° 52.3° - - -
3/28 12:00pm 272 8 G 11 61° 72% - - 52° 63.3° 52.3° - - -
3/28 11:50am 255 10 G 15 61° 73% - - 52° 63.3° 52.3° - - -
3/28 11:40am 264 8 G 13 62° 71% - - 52° 63.3° 52.3° - - -
3/28 11:30am 251 6 G 10 62° 69% - - 52° 63.3° 52.3° - - -
3/28 11:20am 241 6 G 10 62° 68% - - 51° 63.3° 52.3° - - -
3/28 11:10am 277 6 G 10 62° 69% - - 52° 63.3° 52.3° - - -
3/28 11:00am 294 6 G 8 62° 68% - - 51° 62.7° 52.3° - - -
3/28 10:50am 292 5 G 9 61° 70% - - 51° 62.7° 52.3° - - -
3/28 10:40am 289 6 G 10 60° 72% - - 51° 62.7° 52.3° - - -
3/28 10:30am 272 7 G 10 61° 70% - - 51° 62.7° 52.3° - - -
3/28 10:20am 291 5 G 9 62° 69% - - 51° 62.7° 52.3° - - -
3/28 10:10am 323 3 G 5 61° 66% - - 50° 62.1° 52.3° - - -
3/28 10:00am 337 4 G 7 61° 68% - - 50° 61.7° 52.3° - - -
3/28 9:50am 360 2 G 5 61° 70% - - 51° 61.5° 52.3° - - -
3/28 9:40am 1 4 G 7 60° 72% - - 51° 60.7° 52.3° - - -
3/28 9:30am 34 4 G 6 59° 72% - - 50° 60° 52.3° - - -
3/28 9:20am 59 2 G 4 59° 74% - - 51° 59.9° 52.3° - - -
3/28 9:10am 67 3 G 6 58° 77% - - 51° 58.9° 52.3° - - -
3/28 9:00am 61 4 G 6 57° 78% - - 51° 58° 52.3° - - -
3/28 8:50am 51 4 G 6 57° 79% - - 51° 57.8° 52.3° - - -
3/28 8:40am 66 2 G 4 57° 79% - - 51° 57.7° 52.3° - - -
3/28 8:30am 59 3 G 5 57° 81% - - 51° 57.1° 52.3° - - -
3/28 8:20am 109 3 G 5 56° 81% - - 50° 56.9° 52.3° - - -
3/28 8:10am 87 4 G 6 55° 82% - - 50° 56.9° 52.3° - - -
3/28 8:00am 90 4 G 7 55° 83% - - 50° 56.9° 52.3° - - -
3/28 7:50am 118 5 G 7 55° 82% - - 49° 56.9° 52.3° - - -
3/28 7:40am 152 4 G 6 54° 83% - - 49° 56.9° 52.3° - - -
3/28 7:30am 124 5 G 8 53° 84% - - 49° 56.9° 52.3° - - -
3/28 7:20am 113 7 G 9 53° 85% - - 49° 56.9° 52.3° - - -
3/28 7:10am 126 7 G 8 53° 85% - - 49° 56.9° 52.3° - - -
3/28 7:00am 128 7 G 8 53° 85% - - 49° 56.9° 52.3° - - -
3/28 6:50am 131 6 G 7 53° 85% - - 49° 56.9° 52.3° - - -
3/28 6:40am 134 6 G 7 53° 85% - - 49° 56.9° 52.3° - - -
3/28 6:30am 135 4 G 7 53° 85% - - 49° 56.9° 52.3° - - -
3/28 6:20am 116 6 G 9 53° 85% - - 49° 56.9° 52.3° - - -
3/28 6:10am 118 6 G 8 53° 86% - - 49° 56.9° 52.3° - - -
3/28 6:00am 105 6 G 7 53° 86% - - 49° 56.9° 52.3° - - -